Time;durP1;ratioP1;P1;durP2;ratioP2;P2;SDS_P1;SDS_P2;PMS_P1;PMS_P2;Temp;Humidity;BMP_temperature;BMP_pressure;BME280_temperature;BME280_humidity;BME280_pressure;Samples;Min_cycle;Max_cycle;Signal;HPM_P1;HPM_P2
2022/01/03 00:00:11;;;;;;;3.97;3.70;;;;;;;22.34;33.88;95434.09;4979809;28;102812;-53
2022/01/03 00:02:38;;;;;;;4.40;4.10;;;;;;;22.33;33.69;95428.00;4979603;28;102904;-53
2022/01/03 00:05:04;;;;;;;3.77;3.57;;;;;;;22.34;33.84;95424.28;4979540;28;102708;-52
2022/01/03 00:07:35;;;;;;;4.10;3.80;;;;;;;22.32;33.45;95421.09;4979327;28;103213;-53
2022/01/03 00:10:02;;;;;;;4.20;3.90;;;;;;;22.33;33.65;95412.03;4979673;28;102766;-53
2022/01/03 00:12:29;;;;;;;3.70;3.40;;;;;;;22.32;33.36;95412.31;4978810;28;102672;-53
2022/01/03 00:14:56;;;;;;;4.20;3.90;;;;;;;22.33;33.78;95408.56;4977946;28;102813;-53
2022/01/03 00:17:22;;;;;;;4.27;3.93;;;;;;;22.35;33.28;95409.09;4959198;28;103285;-53
2022/01/03 00:19:47;;;;;;;3.70;3.40;;;;;;;22.34;33.67;95410.16;4959069;28;102798;-53
2022/01/03 00:22:17;;;;;;;3.67;3.43;;;;;;;22.32;33.40;95399.81;4959988;28;102762;-52
2022/01/03 00:24:48;;;;;;;4.20;3.90;;;;;;;22.32;33.27;95383.81;4960022;28;102678;-53
2022/01/03 00:27:15;;;;;;;4.20;3.90;;;;;;;22.31;33.32;95390.22;4942614;28;103272;-53
2022/01/03 00:29:47;;;;;;;3.87;3.57;;;;;;;22.32;33.24;95386.50;4959821;28;103290;-53
2022/01/03 00:32:13;;;;;;;4.30;4.00;;;;;;;22.31;33.29;95376.13;4959494;28;102765;-53
2022/01/03 00:34:40;;;;;;;4.97;4.20;;;;;;;22.30;33.32;95383.34;4959013;28;103246;-53
2022/01/03 00:37:08;;;;;;;3.90;3.60;;;;;;;22.30;33.61;95375.34;4958977;28;103162;-53
2022/01/03 00:39:34;;;;;;;4.17;3.87;;;;;;;22.28;33.41;95377.50;4958731;28;102826;-53
2022/01/03 00:41:59;;;;;;;4.43;4.13;;;;;;;22.29;33.26;95371.09;4958826;28;102930;-53
2022/01/03 00:44:25;;;;;;;4.60;4.30;;;;;;;22.29;33.54;95373.78;4959004;28;102787;-53
2022/01/03 00:46:55;;;;;;;4.10;3.80;;;;;;;22.27;33.07;95383.13;4959620;28;102697;-52
2022/01/03 00:49:20;;;;;;;3.97;3.60;;;;;;;22.27;33.19;95380.47;4958559;28;102688;-53
2022/01/03 00:51:47;;;;;;;4.30;4.00;;;;;;;22.28;33.41;95387.38;4959737;28;102638;-52
2022/01/03 00:54:12;;;;;;;3.90;3.60;;;;;;;22.26;33.16;95390.34;4960199;28;103073;-52
2022/01/03 00:56:44;;;;;;;4.10;3.80;;;;;;;22.23;33.56;95398.91;4958612;28;103455;-53
2022/01/03 00:59:15;;;;;;;4.10;3.70;;;;;;;22.24;33.52;95395.16;4958833;28;103533;-53
2022/01/03 01:01:52;;;;;;;4.00;3.70;;;;;;;22.24;33.01;95387.16;4951214;28;102791;-52
2022/01/03 01:04:20;;;;;;;4.30;4.00;;;;;;;22.24;33.20;95365.09;4939250;28;102775;-53
2022/01/03 01:06:51;;;;;;;4.10;3.70;;;;;;;22.23;33.35;95372.28;4939672;28;104033;-53
2022/01/03 01:09:18;;;;;;;3.70;3.40;;;;;;;22.24;33.28;95355.22;4939837;28;103429;-53
2022/01/03 01:11:44;;;;;;;3.60;3.30;;;;;;;22.23;33.24;95353.66;4938679;28;102836;-53
2022/01/03 01:14:12;;;;;;;3.70;3.47;;;;;;;22.25;33.33;95353.34;4939784;28;102696;-53
2022/01/03 01:16:38;;;;;;;3.20;3.00;;;;;;;22.25;33.13;95345.38;4954885;28;103705;-53
2022/01/03 01:19:05;;;;;;;3.40;3.20;;;;;;;22.23;32.98;95332.38;4958544;28;102566;-53
2022/01/03 01:21:31;;;;;;;3.43;3.13;;;;;;;22.24;33.54;95341.13;4959225;28;103195;-53
2022/01/03 01:23:57;;;;;;;3.60;3.30;;;;;;;22.23;32.98;95335.03;4958361;28;102781;-53
2022/01/03 01:29:09;;;;;;;3.40;3.20;;;;;;;22.24;32.86;95346.47;4956230;28;103074;-53
2022/01/03 01:31:39;;;;;;;3.73;3.43;;;;;;;22.23;33.05;95350.22;4958797;28;102832;-53
2022/01/03 01:34:06;;;;;;;3.10;2.90;;;;;;;22.21;33.01;95353.16;4958240;28;102790;-53
2022/01/03 01:36:33;;;;;;;3.30;3.10;;;;;;;22.19;32.96;95340.16;4959121;28;103414;-53
2022/01/03 01:39:10;;;;;;;3.30;3.03;;;;;;;22.22;33.24;95341.44;4958589;28;103112;-53
2022/01/03 01:41:41;;;;;;;3.50;3.30;;;;;;;22.16;33.19;95322.09;4958573;28;103252;-53
2022/01/03 01:44:09;;;;;;;3.80;3.50;;;;;;;22.19;32.81;95342.03;4959513;28;102521;-53
2022/01/03 01:46:41;;;;;;;3.70;3.50;;;;;;;22.19;33.18;95336.69;4958424;28;102785;-53
2022/01/03 01:49:07;;;;;;;2.97;2.77;;;;;;;22.20;33.24;95340.94;4957831;28;104653;-53
2022/01/03 01:51:34;;;;;;;3.90;3.60;;;;;;;22.20;32.87;95338.28;4958324;28;103344;-53
2022/01/03 01:54:05;;;;;;;3.03;2.83;;;;;;;22.22;32.93;95336.09;4959307;28;102684;-53
2022/01/03 01:56:49;;;;;;;3.33;3.10;;;;;;;22.22;32.97;95338.78;4957047;28;102820;-53
2022/01/03 01:59:31;;;;;;;2.83;2.63;;;;;;;22.20;32.94;95335.63;4958207;28;103188;-52
2022/01/03 02:02:06;;;;;;;2.93;2.73;;;;;;;22.19;33.24;95328.72;4965192;28;102794;-53
2022/01/03 02:04:33;;;;;;;3.17;2.97;;;;;;;22.18;33.07;95327.94;4977957;28;102833;-53
2022/01/03 02:07:26;;;;;;;2.80;2.60;;;;;;;22.18;32.99;95322.59;4977547;28;102971;-52
2022/01/03 02:10:10;;;;;;;3.47;3.17;;;;;;;22.19;32.79;95326.06;4977643;28;103090;-52
2022/01/03 02:12:39;;;;;;;3.30;3.10;;;;;;;22.18;32.91;95316.50;4978145;28;104183;-53
2022/01/03 02:15:10;;;;;;;3.07;2.87;;;;;;;22.21;32.67;95316.69;4975284;28;102677;-53
2022/01/03 02:17:35;;;;;;;3.00;2.80;;;;;;;22.19;32.54;95302.88;4954651;28;103006;-53
2022/01/03 02:20:20;;;;;;;2.90;2.70;;;;;;;22.19;32.86;95291.47;4958293;28;102626;-53
2022/01/03 02:22:46;;;;;;;3.00;2.80;;;;;;;22.18;33.12;95289.88;4957991;28;102807;-53
2022/01/03 02:25:14;;;;;;;3.00;2.80;;;;;;;22.18;32.73;95284.56;4958142;28;102808;-52
2022/01/03 02:27:42;;;;;;;2.80;2.60;;;;;;;22.18;32.80;95279.25;4958925;28;103321;-53
2022/01/03 02:30:12;;;;;;;3.00;2.80;;;;;;;22.18;32.67;95271.25;4957444;28;103265;-52
2022/01/03 02:32:38;;;;;;;3.57;3.37;;;;;;;22.19;32.94;95272.81;4958075;28;102788;-53
2022/01/03 02:35:04;;;;;;;3.50;3.30;;;;;;;22.18;32.70;95277.38;4959585;28;102817;-53
2022/01/03 02:37:31;;;;;;;3.07;2.87;;;;;;;22.19;32.67;95275.50;4958717;28;103457;-53
2022/01/03 02:39:56;;;;;;;2.87;2.67;;;;;;;22.18;33.31;95261.41;4957144;28;102771;-53
2022/01/03 02:42:26;;;;;;;3.67;3.37;;;;;;;22.18;32.80;95279.25;4957280;28;102693;-53
2022/01/03 02:45:10;;;;;;;3.00;2.80;;;;;;;22.19;32.87;95262.19;4958486;28;102726;-53
2022/01/03 02:47:36;;;;;;;2.80;2.60;;;;;;;22.16;32.88;95268.84;4957369;28;102782;-53
2022/01/03 02:50:04;;;;;;;3.13;2.93;;;;;;;22.19;32.81;95280.81;4939457;28;103832;-52
2022/01/03 02:52:29;;;;;;;2.90;2.70;;;;;;;22.17;32.68;95281.09;4957294;28;103137;-53
2022/01/03 02:54:56;;;;;;;3.33;3.13;;;;;;;22.15;32.88;95264.63;4957424;28;102790;-53
2022/01/03 02:57:23;;;;;;;3.57;3.27;;;;;;;22.16;32.84;95278.72;4958272;28;103421;-53
2022/01/03 02:59:56;;;;;;;2.80;2.60;;;;;;;22.17;32.75;95274.97;4959026;28;103044;-53
2022/01/03 03:02:24;;;;;;;2.70;2.50;;;;;;;22.17;32.75;95266.97;4938063;28;104532;-53
2022/01/03 03:04:55;;;;;;;2.83;2.63;;;;;;;22.17;32.92;95265.13;4958122;28;102712;-53
2022/01/03 03:07:22;;;;;;;2.50;2.40;;;;;;;22.17;32.44;95264.31;4957638;28;102956;-53
2022/01/03 03:09:48;;;;;;;2.83;2.63;;;;;;;22.15;32.79;95256.63;4957660;28;103373;-53
2022/01/03 03:12:14;;;;;;;2.70;2.50;;;;;;;22.17;32.74;95254.50;4957776;28;102804;-53
2022/01/03 03:14:40;;;;;;;2.50;2.30;;;;;;;22.17;32.47;95249.19;4957185;28;102836;-53
2022/01/03 03:17:05;;;;;;;2.90;2.70;;;;;;;22.17;32.74;95248.34;4937244;28;104387;-53
2022/01/03 03:19:31;;;;;;;2.90;2.70;;;;;;;22.16;32.66;95252.09;4939318;28;103352;-53
2022/01/03 03:21:57;;;;;;;2.90;2.70;;;;;;;22.15;32.59;95261.16;4941776;28;102896;-53
2022/01/03 03:24:23;;;;;;;2.90;2.70;;;;;;;22.17;32.65;95259.00;4940857;28;102802;-53
2022/01/03 03:26:48;;;;;;;2.53;2.37;;;;;;;22.16;32.75;95252.09;4941553;28;102731;-53
2022/01/03 03:29:15;;;;;;;2.57;2.37;;;;;;;22.13;32.57;95245.50;4941494;28;102804;-53
2022/01/03 03:31:40;;;;;;;3.00;2.80;;;;;;;22.15;32.70;95261.16;4940178;28;103345;-53
2022/01/03 03:34:06;;;;;;;2.40;2.30;;;;;;;22.14;32.65;95251.63;4941848;28;102677;-53
2022/01/03 03:36:32;;;;;;;2.80;2.60;;;;;;;22.14;32.61;95260.38;4941145;28;102762;-53
2022/01/03 03:38:57;;;;;;;2.70;2.57;;;;;;;22.14;32.63;95259.59;4940757;28;102783;-53
2022/01/03 03:41:23;;;;;;;2.70;2.50;;;;;;;22.14;32.48;95235.66;4941267;28;103277;-53
2022/01/03 03:43:48;;;;;;;2.93;2.73;;;;;;;22.15;32.53;95247.88;4941546;28;102742;-53
2022/01/03 03:46:14;;;;;;;3.40;3.10;;;;;;;22.13;32.53;95245.50;4939835;28;102960;-53
2022/01/03 03:48:40;;;;;;;2.90;2.70;;;;;;;22.13;32.55;95242.84;4936331;28;103907;-53
2022/01/03 03:51:05;;;;;;;3.50;3.20;;;;;;;22.13;32.40;95250.03;4922782;28;102780;-53
2022/01/03 03:53:31;;;;;;;3.33;3.07;;;;;;;22.12;32.57;95249.25;4941316;28;102755;-53
2022/01/03 03:55:57;;;;;;;3.37;3.17;;;;;;;22.13;32.63;95258.03;4940108;28;102753;-53
2022/01/03 03:58:22;;;;;;;3.20;3.00;;;;;;;22.15;32.52;95245.22;4940426;28;103322;-53
2022/01/03 04:00:48;;;;;;;2.53;2.40;;;;;;;22.13;32.20;95247.38;4940342;28;102722;-53
2022/01/03 04:03:13;;;;;;;2.90;2.70;;;;;;;22.11;32.39;95233.56;4940922;28;102765;-53
2022/01/03 04:05:39;;;;;;;2.80;2.60;;;;;;;22.13;32.59;95236.72;4940795;28;102075;-52
2022/01/03 04:08:04;;;;;;;2.80;2.60;;;;;;;22.11;32.68;95237.03;4940339;28;103142;-53
2022/01/03 04:10:30;;;;;;;3.10;2.90;;;;;;;22.11;32.76;95233.56;4939278;28;103406;-53
2022/01/03 04:12:56;;;;;;;3.00;2.80;;;;;;;22.13;32.54;95234.84;4941352;28;102817;-52
2022/01/03 04:15:21;;;;;;;2.37;2.27;;;;;;;22.13;32.71;95237.50;4952078;28;102721;-53
2022/01/03 04:17:46;;;;;;;2.70;2.50;;;;;;;22.13;32.59;95236.72;4992197;28;103734;-53
2022/01/03 04:20:15;;;;;;;2.63;2.43;;;;;;;22.10;32.36;95232.78;4978341;28;103360;-53
2022/01/03 04:22:42;;;;;;;3.13;2.93;;;;;;;22.12;32.53;95251.13;4980295;28;102758;-53
2022/01/03 04:25:08;;;;;;;3.00;2.80;;;;;;;22.13;32.38;95260.69;4979549;28;102651;-53
2022/01/03 04:27:34;;;;;;;3.30;3.00;;;;;;;22.09;32.52;95257.81;4979641;28;103908;-53
2022/01/03 04:29:59;;;;;;;2.80;2.60;;;;;;;22.13;32.48;95250.81;4978566;28;103098;-53
2022/01/03 04:32:25;;;;;;;2.87;2.67;;;;;;;22.13;32.23;95247.38;4978738;28;102685;-53
2022/01/03 04:34:50;;;;;;;3.00;2.80;;;;;;;22.13;32.18;95236.72;4979876;28;102767;-53
2022/01/03 04:37:16;;;;;;;3.00;2.80;;;;;;;22.12;32.09;95230.63;4979972;28;103322;-53
2022/01/03 04:39:42;;;;;;;3.03;2.83;;;;;;;22.14;32.48;95238.31;4978019;28;103243;-53
2022/01/03 04:42:08;;;;;;;2.80;2.60;;;;;;;22.10;32.43;95234.66;4979522;28;102768;-53
2022/01/03 04:44:34;;;;;;;2.73;2.63;;;;;;;22.11;32.49;95250.31;4978696;28;103260;-53
2022/01/03 04:46:59;;;;;;;2.90;2.70;;;;;;;22.10;32.17;95246.09;4978955;28;102695;-53
2022/01/03 04:49:25;;;;;;;3.07;2.87;;;;;;;22.09;32.25;95241.84;4979501;28;102770;-53
2022/01/03 04:51:50;;;;;;;3.17;2.93;;;;;;;22.11;32.59;95249.53;4979535;28;102723;-53
2022/01/03 04:54:16;;;;;;;2.80;2.60;;;;;;;22.10;32.16;95253.28;4978813;28;103102;-53
2022/01/03 04:56:41;;;;;;;3.37;3.17;;;;;;;22.10;32.36;95263.94;4979245;28;103304;-52
2022/01/03 04:59:07;;;;;;;3.70;3.40;;;;;;;22.10;32.22;95267.38;4979087;28;102652;-52
2022/01/03 05:01:32;;;;;;;3.13;2.83;;;;;;;22.09;32.13;95268.47;4979186;28;102937;-53
2022/01/03 05:03:58;;;;;;;2.90;2.70;;;;;;;22.10;32.13;95274.56;4978795;28;103261;-53
2022/01/03 05:06:23;;;;;;;2.83;2.63;;;;;;;22.07;32.48;95270.63;4977406;28;102870;-53
2022/01/03 05:08:49;;;;;;;3.00;2.80;;;;;;;22.07;32.18;95275.94;4978041;28;104803;-53
2022/01/03 05:11:14;;;;;;;3.10;2.90;;;;;;;22.08;32.49;95282.06;4980021;28;102623;-53
2022/01/03 05:13:41;;;;;;;2.50;2.40;;;;;;;22.05;32.32;95275.47;4979062;28;103099;-53
2022/01/03 05:16:07;;;;;;;2.90;2.70;;;;;;;22.07;32.13;95277.81;4966710;28;104436;-53
2022/01/03 05:18:32;;;;;;;2.90;2.70;;;;;;;22.08;32.71;95261.56;4959144;28;102855;-53
2022/01/03 05:20:58;;;;;;;2.73;2.53;;;;;;;22.07;32.41;95272.50;4959786;28;102679;-53
2022/01/03 05:23:23;;;;;;;3.13;2.93;;;;;;;22.05;32.23;95272.81;4958990;28;103174;-53
2022/01/03 05:25:49;;;;;;;3.10;2.90;;;;;;;22.05;32.27;95269.34;4958672;28;103711;-53
2022/01/03 05:28:15;;;;;;;2.93;2.63;;;;;;;22.07;32.17;95265.31;4959239;28;103164;-53
2022/01/03 05:30:41;;;;;;;3.00;2.80;;;;;;;22.06;32.10;95250.44;4958817;28;102833;-53
2022/01/03 05:33:07;;;;;;;2.80;2.60;;;;;;;22.04;32.15;95254.44;4958453;28;103455;-53
2022/01/03 05:35:33;;;;;;;2.80;2.60;;;;;;;22.04;32.31;95265.88;4958715;28;103101;-53
2022/01/03 05:37:58;;;;;;;3.00;2.80;;;;;;;22.06;32.09;95260.28;4958184;28;103236;-53
2022/01/03 05:40:24;;;;;;;3.10;2.90;;;;;;;22.07;32.23;95259.19;4958548;28;102854;-53
2022/01/03 05:42:50;;;;;;;2.90;2.70;;;;;;;22.05;32.33;95251.50;4957812;28;102755;-53
2022/01/03 05:45:16;;;;;;;3.07;2.87;;;;;;;22.04;32.09;95236.59;4958224;28;102811;-53
2022/01/03 05:47:46;;;;;;;2.90;2.70;;;;;;;22.04;31.96;95230.50;4958258;28;102998;-53
2022/01/03 05:50:16;;;;;;;3.27;3.07;;;;;;;22.04;32.08;95244.59;4959484;28;103294;-53
2022/01/03 05:52:42;;;;;;;3.00;2.80;;;;;;;22.05;32.26;95250.72;4957760;28;103360;-53
2022/01/03 05:55:08;;;;;;;2.67;2.47;;;;;;;22.04;32.29;95259.75;4958753;28;103202;-52
2022/01/03 05:57:34;;;;;;;3.00;2.80;;;;;;;22.04;32.30;95262.44;4958421;28;102779;-53
2022/01/03 06:00:01;;;;;;;2.70;2.37;;;;;;;22.07;32.24;95259.19;4958054;28;102952;-53
2022/01/03 06:02:30;;;;;;;3.03;2.83;;;;;;;22.05;31.97;95256.06;4958015;28;103882;-53
2022/01/03 06:04:59;;;;;;;3.03;2.83;;;;;;;22.05;32.21;95251.50;4958417;28;103348;-52
2022/01/03 06:07:24;;;;;;;2.40;2.30;;;;;;;22.04;32.17;95247.25;4957420;28;103312;-53
2022/01/03 06:09:51;;;;;;;2.57;2.43;;;;;;;22.05;31.80;95256.06;4957656;28;102824;-53
2022/01/03 06:12:17;;;;;;;2.73;2.53;;;;;;;22.04;31.94;95259.75;4957817;28;103494;-53
2022/01/03 06:14:47;;;;;;;2.80;2.60;;;;;;;22.03;32.03;95263.50;4958712;28;103687;-52
2022/01/03 06:17:15;;;;;;;3.00;2.80;;;;;;;22.05;32.05;95261.38;4978328;28;102824;-53
2022/01/03 06:19:40;;;;;;;2.70;2.50;;;;;;;22.04;32.20;95265.88;4978011;28;102765;-53
2022/01/03 06:22:08;;;;;;;3.13;2.93;;;;;;;22.05;32.19;95269.34;4977325;28;103102;-53
2022/01/03 06:24:35;;;;;;;2.57;2.40;;;;;;;22.03;32.26;95272.28;4978007;28;103756;-53
2022/01/03 06:27:01;;;;;;;2.90;2.70;;;;;;;22.03;32.13;95269.63;4977544;28;102787;-54
2022/01/03 06:29:28;;;;;;;3.00;2.80;;;;;;;22.04;32.01;95283.72;4977369;28;102827;-52
2022/01/03 06:31:53;;;;;;;2.70;2.50;;;;;;;22.03;32.03;95279.47;4977605;28;103163;-53
2022/01/03 06:34:19;;;;;;;2.87;2.67;;;;;;;22.03;32.12;95282.13;4977499;28;102713;-53
2022/01/03 06:36:45;;;;;;;2.47;2.37;;;;;;;22.02;32.13;95280.56;4977267;28;102691;-53
2022/01/03 06:39:12;;;;;;;3.03;2.83;;;;;;;22.04;31.83;95279.19;4978762;28;103025;-52
2022/01/03 06:41:42;;;;;;;3.40;3.10;;;;;;;22.04;31.85;95278.38;4976774;28;102774;-53
2022/01/03 06:44:08;;;;;;;2.80;2.60;;;;;;;22.04;31.90;95275.72;4977703;28;103351;-53
2022/01/03 06:46:34;;;;;;;2.90;2.70;;;;;;;22.04;31.92;95270.41;4977603;28;103340;-53
2022/01/03 06:49:00;;;;;;;3.03;2.83;;;;;;;22.06;31.81;95273.59;4978045;28;102661;-52
2022/01/03 06:51:31;;;;;;;3.83;2.97;;;;;;;22.05;31.92;95277.34;4977715;28;102653;-53
2022/01/03 06:53:57;;;;;;;3.37;3.17;;;;;;;22.05;31.96;95272.81;4976187;28;103539;-53
2022/01/03 06:56:22;;;;;;;3.50;3.30;;;;;;;22.08;31.95;95274.09;4981300;28;102709;-53
2022/01/03 06:58:48;;;;;;;4.07;3.77;;;;;;;22.09;31.90;95262.34;4980743;28;102737;-53
2022/01/03 07:01:14;;;;;;;4.20;3.90;;;;;;;22.12;32.02;95262.56;4980631;28;102825;-54
2022/01/03 07:03:39;;;;;;;3.90;3.60;;;;;;;22.22;31.94;95264.25;4981017;28;102738;-52
2022/01/03 07:06:05;;;;;;;4.40;4.10;;;;;;;22.33;31.58;95267.50;4980463;28;102787;-52
2022/01/03 07:08:30;;;;;;;5.20;4.70;;;;;;;22.50;31.44;95265.81;4981476;28;102586;-52
2022/01/03 07:10:56;;;;;;;4.50;4.20;;;;;;;22.83;30.91;95265.72;4980511;28;102834;-52
2022/01/03 07:13:24;;;;;;;4.40;4.10;;;;;;;22.96;30.51;95269.47;4980804;28;103939;-52
2022/01/03 07:21:17;;;;;;;4.10;3.80;;;;;;;23.29;30.30;95256.75;4960650;28;102723;-52
2022/01/03 07:23:43;;;;;;;4.30;4.00;;;;;;;23.23;29.73;95253.44;4961440;28;103326;-52
2022/01/03 07:26:08;;;;;;;4.50;4.10;;;;;;;23.17;30.39;95254.59;4960522;28;102906;-52
2022/01/03 07:28:34;;;;;;;4.00;3.70;;;;;;;23.05;30.19;95252.50;4961311;28;103232;-53
2022/01/03 07:31:00;;;;;;;4.30;4.00;;;;;;;22.97;30.66;95249.72;4961175;28;103270;-52
2022/01/03 07:33:26;;;;;;;3.80;3.50;;;;;;;22.87;30.60;95242.75;4960462;28;102714;-52
2022/01/03 07:35:52;;;;;;;4.00;3.70;;;;;;;22.95;30.41;95242.03;4959742;28;102727;-52
2022/01/03 07:38:17;;;;;;;4.13;3.83;;;;;;;22.99;30.17;95234.22;4960125;28;102699;-53
2022/01/03 07:40:43;;;;;;;3.80;3.57;;;;;;;23.02;30.12;95237.09;4960695;28;102799;-54
2022/01/03 07:43:08;;;;;;;4.00;3.70;;;;;;;23.07;30.73;95226.31;4960420;28;102744;-53
2022/01/03 07:45:34;;;;;;;4.37;4.03;;;;;;;23.09;30.62;95232.13;4961362;28;103229;-53
2022/01/03 07:47:59;;;;;;;3.80;3.50;;;;;;;23.11;30.24;95237.16;4961135;28;102846;-52
2022/01/03 07:50:25;;;;;;;4.10;3.80;;;;;;;23.07;30.42;95244.19;4960229;28;102773;-54
2022/01/03 07:52:51;;;;;;;4.33;4.03;;;;;;;23.08;30.60;95246.56;4942792;28;103527;-52
2022/01/03 07:55:17;;;;;;;4.93;4.53;;;;;;;23.07;30.35;95244.19;4959872;28;103672;-52
2022/01/03 07:57:43;;;;;;;4.93;4.53;;;;;;;23.07;30.83;95244.97;4960977;28;102700;-53
2022/01/03 08:00:12;;;;;;;4.47;4.17;;;;;;;23.09;30.42;95248.13;4958738;28;102805;-54
2022/01/03 08:02:41;;;;;;;4.60;4.30;;;;;;;23.09;30.82;95256.13;4959962;28;102897;-54
2022/01/03 08:05:08;;;;;;;4.70;4.40;;;;;;;23.09;31.00;95252.66;4959403;28;102803;-54
2022/01/03 08:07:35;;;;;;;4.43;4.13;;;;;;;23.11;30.71;95253.94;4960252;28;102989;-54
2022/01/03 08:10:01;;;;;;;4.67;4.37;;;;;;;23.13;30.76;95250.97;4960021;28;102859;-54
2022/01/03 08:12:27;;;;;;;4.67;4.37;;;;;;;23.15;30.73;95248.00;4959595;28;104414;-50
2022/01/03 08:14:52;;;;;;;4.17;3.87;;;;;;;23.15;30.55;95246.13;4961169;28;103178;-50
2022/01/03 08:17:18;;;;;;;4.60;4.30;;;;;;;23.16;30.59;95258.38;4980687;28;102667;-50
2022/01/03 08:19:43;;;;;;;4.90;4.50;;;;;;;23.15;30.79;95250.66;4980576;28;103226;-50
2022/01/03 08:22:09;;;;;;;6.40;5.80;;;;;;;23.15;31.03;95256.00;4978423;28;103061;-49
2022/01/03 08:24:34;;;;;;;13.37;12.23;;;;;;;23.11;30.81;95258.50;4978444;28;103295;-50
2022/01/03 08:27:00;;;;;;;8.40;7.73;;;;;;;23.10;31.52;95255.03;4980256;28;103087;-50
2022/01/03 08:29:25;;;;;;;7.90;7.30;;;;;;;23.08;31.67;95245.78;4979380;28;102798;-50
2022/01/03 08:31:51;;;;;;;9.33;8.47;;;;;;;23.06;31.35;95247.94;4979595;28;104614;-50
2022/01/03 08:34:17;;;;;;;10.57;9.77;;;;;;;23.04;31.42;95240.25;4979303;28;103208;-50
2022/01/03 08:36:43;;;;;;;11.23;10.20;;;;;;;23.04;31.59;95239.47;4979834;28;103300;-50
2022/01/03 08:39:09;;;;;;;10.77;9.87;;;;;;;23.03;32.11;95237.91;4979345;28;103446;-50
2022/01/03 08:41:35;;;;;;;11.43;10.43;;;;;;;23.02;32.16;95231.00;4978997;28;103536;-50
2022/01/03 08:44:00;;;;;;;11.63;10.73;;;;;;;22.99;32.07;95229.69;4978224;28;102751;-50
2022/01/03 08:46:26;;;;;;;12.27;11.37;;;;;;;22.99;32.32;95224.34;4979897;28;102635;-50
2022/01/03 08:48:54;;;;;;;11.93;10.93;;;;;;;23.00;32.47;95225.94;4978938;28;102708;-50
2022/01/03 08:51:20;;;;;;;11.97;10.97;;;;;;;22.99;32.22;95216.38;4979068;28;103362;-49
2022/01/03 08:53:45;;;;;;;12.47;11.47;;;;;;;22.98;32.32;95206.78;4979047;28;103940;-50
2022/01/03 08:56:11;;;;;;;13.30;12.20;;;;;;;22.94;32.67;95203.16;4979012;28;102690;-49
2022/01/03 08:58:37;;;;;;;12.00;10.97;;;;;;;22.90;32.75;95191.53;4978468;28;102741;-49
2022/01/03 09:01:02;;;;;;;12.97;11.90;;;;;;;22.88;32.47;95188.38;4978711;28;102680;-49
2022/01/03 09:03:28;;;;;;;12.83;11.73;;;;;;;22.89;32.58;95189.97;4978849;28;102693;-49
2022/01/03 09:05:54;;;;;;;11.73;10.83;;;;;;;22.89;32.47;95175.84;4978403;28;103449;-49
2022/01/03 09:08:22;;;;;;;12.73;11.70;;;;;;;22.88;33.12;95179.59;4979125;28;102700;-50
2022/01/03 09:10:49;;;;;;;12.73;11.53;;;;;;;22.88;33.10;95176.94;4978260;28;102722;-50
2022/01/03 09:13:15;;;;;;;12.90;11.80;;;;;;;22.87;32.79;95178.03;4977686;28;102866;-50
2022/01/03 09:15:44;;;;;;;12.10;11.13;;;;;;;22.87;32.75;95181.50;4973698;28;102729;-49
2022/01/03 09:18:14;;;;;;;12.37;11.40;;;;;;;22.88;33.07;95187.59;4957715;28;102768;-49
2022/01/03 09:20:40;;;;;;;12.97;11.80;;;;;;;22.89;32.76;95189.97;4958437;28;103344;-50
2022/01/03 09:23:14;;;;;;;12.00;11.07;;;;;;;22.88;32.82;95187.59;4958331;28;102746;-50
2022/01/03 09:30:55;;;;;;;13.43;12.33;;;;;;;22.88;33.00;95169.75;4959223;28;103291;-49
2022/01/03 09:33:21;;;;;;;13.60;12.50;;;;;;;22.94;33.29;95167.75;4957916;28;102925;-50
2022/01/03 09:35:46;;;;;;;13.93;12.67;;;;;;;22.96;33.46;95163.69;4958957;28;102489;-49
2022/01/03 09:38:12;;;;;;;14.00;12.90;;;;;;;22.95;33.55;95161.31;4958468;28;102760;-49
2022/01/03 09:40:41;;;;;;;14.77;13.53;;;;;;;22.94;33.66;95144.53;4959144;28;103649;-49
2022/01/03 09:43:08;;;;;;;14.30;13.20;;;;;;;22.91;33.74;95134.50;4958178;28;102740;-49
2022/01/03 09:45:34;;;;;;;14.47;13.07;;;;;;;22.90;33.67;95132.94;4959528;28;103591;-49
2022/01/03 09:48:03;;;;;;;13.97;12.87;;;;;;;22.88;33.17;95139.66;4958805;28;102816;-49
2022/01/03 09:50:32;;;;;;;15.90;14.60;;;;;;;22.87;33.90;95132.75;4944530;28;104627;-50
2022/01/03 09:52:58;;;;;;;15.23;14.00;;;;;;;22.86;33.75;95120.50;4958054;28;103009;-50
2022/01/03 09:55:24;;;;;;;15.00;13.90;;;;;;;22.84;33.85;95114.69;4961054;28;103033;-49
2022/01/03 09:57:50;;;;;;;14.67;13.57;;;;;;;22.85;33.71;95109.06;4958410;28;103252;-49
2022/01/03 10:00:22;;;;;;;15.60;14.30;;;;;;;22.88;33.80;95121.00;4957252;28;103585;-49
2022/01/03 10:02:52;;;;;;;14.47;13.27;;;;;;;22.87;33.82;95111.44;4957625;28;102769;-49
2022/01/03 10:05:19;;;;;;;16.17;14.60;;;;;;;22.84;33.89;95102.16;4958313;28;102673;-49
2022/01/03 10:07:45;;;;;;;14.90;13.70;;;;;;;22.84;33.43;95107.47;4958630;28;102730;-49
2022/01/03 10:10:11;;;;;;;16.17;14.87;;;;;;;22.80;34.04;95104.59;4958329;28;102678;-49
2022/01/03 10:12:37;;;;;;;16.10;14.57;;;;;;;22.76;33.90;95103.63;4957431;28;102875;-49
2022/01/03 10:15:06;;;;;;;14.30;13.10;;;;;;;22.76;34.07;95092.97;4961612;28;102798;-50
2022/01/03 10:17:42;;;;;;;14.60;13.47;;;;;;;22.76;33.61;95082.31;4977938;28;102838;-50
2022/01/03 10:20:12;;;;;;;14.43;13.23;;;;;;;22.78;34.08;95074.03;4977837;28;103470;-50
2022/01/03 10:22:39;;;;;;;14.00;12.70;;;;;;;22.80;33.59;95085.16;4977343;28;102759;-49
2022/01/03 10:25:17;;;;;;;13.30;12.20;;;;;;;22.79;33.60;95083.59;4978589;28;103251;-50
2022/01/03 10:27:55;;;;;;;13.27;12.17;;;;;;;22.79;33.65;95076.38;4976942;28;102959;-50
2022/01/03 10:30:35;;;;;;;11.47;10.57;;;;;;;22.79;33.77;95072.94;4980267;28;102689;-50
2022/01/03 10:33:03;;;;;;;11.20;10.40;;;;;;;22.79;33.60;95073.72;4975684;28;102951;-50
2022/01/03 10:35:38;;;;;;;10.37;9.57;;;;;;;22.79;33.83;95070.28;4952210;28;103420;-50
2022/01/03 10:38:04;;;;;;;10.30;9.50;;;;;;;22.80;33.35;95058.53;4941981;28;102958;-49
2022/01/03 10:40:31;;;;;;;10.03;9.23;;;;;;;22.79;33.55;95052.41;4942402;28;102644;-49
2022/01/03 10:43:11;;;;;;;9.80;9.00;;;;;;;22.79;33.95;95041.75;4941699;28;103176;-50
2022/01/03 10:45:39;;;;;;;9.80;9.10;;;;;;;22.80;33.65;95043.34;4940924;28;102892;-50
2022/01/03 10:48:32;;;;;;;8.83;8.23;;;;;;;22.77;33.41;95037.84;4941667;28;102674;-50
2022/01/03 10:51:00;;;;;;;9.70;9.00;;;;;;;22.77;33.69;95029.84;4941902;28;102920;-50
2022/01/03 10:53:39;;;;;;;8.50;7.90;;;;;;;22.75;33.66;95024.03;4941450;28;102658;-50
2022/01/03 10:56:43;;;;;;;8.03;7.43;;;;;;;22.78;33.44;95020.75;4941315;28;102787;-50
2022/01/03 10:59:14;;;;;;;8.80;8.10;;;;;;;22.76;33.59;95005.09;4941071;28;102635;-50
2022/01/03 11:01:41;;;;;;;8.60;8.00;;;;;;;22.73;33.61;94996.91;4941463;28;102695;-50
2022/01/03 11:04:07;;;;;;;8.20;7.60;;;;;;;22.68;34.06;94997.84;4941469;28;102745;-50
2022/01/03 11:11:46;;;;;;;9.03;8.23;;;;;;;22.74;34.15;94987.84;4960868;28;102808;-50
2022/01/03 11:14:34;;;;;;;8.83;8.23;;;;;;;22.74;34.15;94982.50;4961121;28;103232;-50
2022/01/03 11:17:20;;;;;;;10.80;9.80;;;;;;;22.68;34.30;94981.06;4959580;28;102724;-50
2022/01/03 11:19:45;;;;;;;10.73;9.83;;;;;;;22.67;34.06;94987.47;4958983;28;102750;-50
2022/01/03 11:22:42;;;;;;;10.47;9.70;;;;;;;22.68;34.26;94979.19;4959804;28;102712;-50
2022/01/03 11:25:09;;;;;;;11.73;10.73;;;;;;;22.68;34.47;94975.75;4957606;28;103386;-50
2022/01/03 11:27:38;;;;;;;11.23;10.37;;;;;;;22.66;34.84;94972.56;4969433;28;102799;-50
2022/01/03 11:30:06;;;;;;;11.30;10.30;;;;;;;22.68;35.32;94960.56;4964736;28;103535;-50
2022/01/03 11:32:33;;;;;;;12.37;11.27;;;;;;;22.69;35.22;94956.00;4960239;28;102673;-50
2022/01/03 11:35:00;;;;;;;13.83;12.70;;;;;;;22.72;35.30;94950.06;4960566;28;102845;-50
2022/01/03 11:37:30;;;;;;;13.00;11.90;;;;;;;22.75;35.28;94950.25;4961396;28;102854;-50
2022/01/03 11:39:58;;;;;;;13.00;11.90;;;;;;;22.74;35.57;94939.91;4958570;28;103278;-50
2022/01/03 11:42:24;;;;;;;13.23;12.13;;;;;;;22.76;35.69;94946.50;4959959;28;102834;-50